createdAt,value
2017-09-03T00:00:16.655Z,12.23
2017-09-03T00:02:46.144Z,13.17
2017-09-03T00:05:15.587Z,13.60
2017-09-03T00:07:45.065Z,14.60
2017-09-03T00:10:14.534Z,13.10
2017-09-03T00:12:44.134Z,13.03
2017-09-03T00:15:13.590Z,12.00
2017-09-03T00:17:43.054Z,12.10
2017-09-03T00:20:12.527Z,13.43
2017-09-03T00:22:41.950Z,12.50
2017-09-03T00:25:11.411Z,14.20
2017-09-03T00:27:40.868Z,13.60
2017-09-03T00:30:10.335Z,13.77
2017-09-03T00:32:39.791Z,13.63
2017-09-03T00:35:09.277Z,13.93
2017-09-03T00:37:38.819Z,14.03
2017-09-03T00:40:08.287Z,14.67
2017-09-03T00:42:37.768Z,14.57
2017-09-03T00:45:07.219Z,14.93
2017-09-03T00:47:36.679Z,14.00
2017-09-03T00:50:06.139Z,15.23
2017-09-03T00:52:35.612Z,15.53
2017-09-03T00:55:05.062Z,16.93
2017-09-03T00:57:34.551Z,16.40
2017-09-03T01:00:03.747Z,15.77
2017-09-03T01:02:33.238Z,16.87
2017-09-03T01:05:02.692Z,17.13
2017-09-03T01:07:32.190Z,17.60
2017-09-03T01:10:01.667Z,16.97
2017-09-03T01:12:31.116Z,17.60
2017-09-03T01:15:00.587Z,17.27
2017-09-03T01:17:30.047Z,18.40
2017-09-03T01:19:59.532Z,17.73
2017-09-03T01:22:29.031Z,17.87
2017-09-03T01:24:58.512Z,16.60
2017-09-03T01:27:27.958Z,18.27
2017-09-03T01:29:57.445Z,17.30
2017-09-03T01:32:26.912Z,18.60
2017-09-03T01:34:56.578Z,17.80
2017-09-03T01:37:26.050Z,16.80
2017-09-03T01:39:55.511Z,16.30
2017-09-03T01:42:24.978Z,17.60
2017-09-03T01:44:54.438Z,16.40
2017-09-03T01:47:24.093Z,17.70
2017-09-03T01:49:53.551Z,17.67
2017-09-03T01:52:23.018Z,17.00
2017-09-03T01:54:52.471Z,18.07
2017-09-03T01:57:21.933Z,17.97
2017-09-03T01:59:51.424Z,17.50
2017-09-03T02:02:20.875Z,16.70
2017-09-03T02:04:50.379Z,15.33
2017-09-03T02:07:20.099Z,15.40
2017-09-03T02:09:49.571Z,15.87
2017-09-03T02:12:19.027Z,15.17
2017-09-03T02:14:48.511Z,16.20
2017-09-03T02:17:17.973Z,16.50
2017-09-03T02:19:47.287Z,17.10
2017-09-03T02:22:16.743Z,16.50
2017-09-03T02:24:46.419Z,18.30
2017-09-03T02:27:15.874Z,17.17
2017-09-03T02:29:45.342Z,15.97
2017-09-03T02:32:14.820Z,14.83
2017-09-03T02:34:44.284Z,16.70
2017-09-03T02:37:13.756Z,17.10
2017-09-03T02:39:43.212Z,18.10
2017-09-03T02:42:12.733Z,17.70
2017-09-03T02:44:42.194Z,15.93
2017-09-03T02:47:11.683Z,15.77
2017-09-03T02:49:41.134Z,16.80
2017-09-03T02:52:10.611Z,17.27
2017-09-03T02:54:40.134Z,16.47
2017-09-03T02:57:09.591Z,17.03
2017-09-03T02:59:39.065Z,16.40
2017-09-03T03:02:08.518Z,15.70
2017-09-03T03:04:38.004Z,16.90
2017-09-03T03:07:07.470Z,16.70
2017-09-03T03:09:36.935Z,15.90
2017-09-03T03:12:06.411Z,15.50
2017-09-03T03:14:36.002Z,16.33
2017-09-03T03:17:05.583Z,15.80
2017-09-03T03:19:35.059Z,15.17
2017-09-03T03:22:04.555Z,18.10
2017-09-03T03:24:34.017Z,15.60
2017-09-03T03:27:03.498Z,17.30
2017-09-03T03:29:32.955Z,16.20
2017-09-03T03:32:02.415Z,17.50
2017-09-03T03:34:31.895Z,18.50
2017-09-03T03:37:01.353Z,16.83
2017-09-03T03:39:30.826Z,17.00
2017-09-03T03:42:00.271Z,18.53
2017-09-03T03:44:29.763Z,19.00
2017-09-03T03:46:59.217Z,17.93
2017-09-03T03:49:28.667Z,16.83
2017-09-03T03:51:58.144Z,16.87
2017-09-03T03:54:27.602Z,17.23
2017-09-03T03:56:57.076Z,18.50
2017-09-03T03:59:26.543Z,18.53
2017-09-03T04:01:56.146Z,17.10
2017-09-03T04:04:25.612Z,17.80
2017-09-03T04:06:55.064Z,19.10
2017-09-03T04:09:24.608Z,17.93
2017-09-03T04:11:54.075Z,19.50
2017-09-03T04:14:23.558Z,19.17
2017-09-03T04:16:53.019Z,17.73
2017-09-03T04:19:22.528Z,19.60
2017-09-03T04:21:51.987Z,19.73
2017-09-03T04:24:21.454Z,18.03
2017-09-03T04:26:50.974Z,18.97
2017-09-03T04:29:20.467Z,20.00
2017-09-03T04:31:50.055Z,20.50
2017-09-03T04:34:19.528Z,19.27
2017-09-03T04:36:49.008Z,18.90
2017-09-03T04:39:18.526Z,18.90
2017-09-03T04:41:48.005Z,18.50
2017-09-03T04:44:17.476Z,17.80
2017-09-03T04:46:46.967Z,17.33
2017-09-03T04:49:16.432Z,17.17
2017-09-03T04:51:46.244Z,18.33
2017-09-03T04:54:15.719Z,17.57
2017-09-03T04:56:45.195Z,17.67
2017-09-03T04:59:14.659Z,17.70
2017-09-03T05:01:44.135Z,18.10
2017-09-03T05:04:13.590Z,18.70
2017-09-03T05:06:43.062Z,18.97
2017-09-03T05:09:12.581Z,18.47
2017-09-03T05:11:42.138Z,18.57
2017-09-03T05:14:11.698Z,18.97
2017-09-03T05:16:41.168Z,18.93
2017-09-03T05:19:10.834Z,21.17
2017-09-03T05:21:40.306Z,19.80
2017-09-03T05:24:09.831Z,17.77
2017-09-03T05:26:39.302Z,17.80
2017-09-03T05:29:08.762Z,18.33
2017-09-03T05:31:38.254Z,18.87
2017-09-03T05:34:07.703Z,19.27
2017-09-03T05:36:37.179Z,18.70
2017-09-03T05:39:06.663Z,17.27
2017-09-03T05:41:36.117Z,17.83
2017-09-03T05:44:05.612Z,17.83
2017-09-03T05:46:35.066Z,19.80
2017-09-03T05:49:04.547Z,19.47
2017-09-03T05:51:34.010Z,16.90
2017-09-03T05:54:03.477Z,17.70
2017-09-03T05:56:32.930Z,17.43
2017-09-03T05:59:02.374Z,17.10
2017-09-03T06:01:31.863Z,16.93
2017-09-03T06:04:01.322Z,16.77
2017-09-03T06:06:30.800Z,17.10
2017-09-03T06:09:00.254Z,17.40
2017-09-03T06:11:29.716Z,18.00
2017-09-03T06:13:59.170Z,16.37
2017-09-03T06:16:28.767Z,16.93
2017-09-03T06:18:58.250Z,14.83
2017-09-03T06:21:27.739Z,15.40
2017-09-03T06:23:57.290Z,16.27
2017-09-03T06:26:26.758Z,16.50
2017-09-03T06:28:56.227Z,15.80
2017-09-03T06:31:25.681Z,15.47
2017-09-03T06:33:55.150Z,15.90
2017-09-03T06:36:24.608Z,14.53
2017-09-03T06:38:54.074Z,14.90
2017-09-03T06:41:23.538Z,14.27
2017-09-03T06:43:52.986Z,12.70
2017-09-03T06:46:22.462Z,13.93
2017-09-03T06:48:51.925Z,11.83
2017-09-03T06:51:21.395Z,12.10
2017-09-03T06:53:50.851Z,12.40
2017-09-03T06:56:20.345Z,11.77
2017-09-03T06:58:49.791Z,11.70
2017-09-03T07:01:19.258Z,11.43
2017-09-03T07:03:48.725Z,10.50
2017-09-03T07:06:18.190Z,10.30
2017-09-03T07:08:47.651Z,10.80
2017-09-03T07:11:17.118Z,10.40
2017-09-03T07:13:46.584Z,11.83
2017-09-03T07:16:16.039Z,10.60
2017-09-03T07:18:45.508Z,11.73
2017-09-03T07:21:14.960Z,10.77
2017-09-03T07:23:44.433Z,11.37
2017-09-03T07:26:13.895Z,12.53
2017-09-03T07:28:43.372Z,12.20
2017-09-03T07:31:12.832Z,12.40
2017-09-03T07:33:42.312Z,12.30
2017-09-03T07:36:11.770Z,10.77
2017-09-03T07:38:41.242Z,11.30
2017-09-03T07:41:10.720Z,11.87
2017-09-03T07:43:40.196Z,10.97
2017-09-03T07:46:09.491Z,11.73
2017-09-03T07:48:38.947Z,13.97
2017-09-03T07:51:08.665Z,14.00
2017-09-03T07:53:38.122Z,14.90
2017-09-03T07:56:07.611Z,15.13
2017-09-03T07:58:37.074Z,16.73
2017-09-03T08:01:07.467Z,14.60
2017-09-03T08:03:36.956Z,13.00
2017-09-03T08:06:06.398Z,14.40
2017-09-03T08:08:35.870Z,16.27
2017-09-03T08:11:05.315Z,14.67
2017-09-03T08:13:34.793Z,15.87
2017-09-03T08:16:04.235Z,15.20
2017-09-03T08:18:33.729Z,16.30
2017-09-03T08:21:03.191Z,16.77
2017-09-03T08:23:32.635Z,14.87
2017-09-03T08:26:02.120Z,14.30
2017-09-03T08:28:31.575Z,13.20
2017-09-03T08:31:01.043Z,13.93
2017-09-03T08:33:30.507Z,15.90
2017-09-03T08:35:59.783Z,15.67
2017-09-03T08:38:29.235Z,14.30
2017-09-03T08:40:58.519Z,12.33
2017-09-03T08:43:27.975Z,13.67
2017-09-03T08:45:57.460Z,13.10
2017-09-03T08:48:26.968Z,14.83
2017-09-03T08:50:56.420Z,12.50
2017-09-03T08:53:25.894Z,12.10
2017-09-03T08:55:55.360Z,12.57
2017-09-03T08:58:25.693Z,12.57
2017-09-03T09:00:55.238Z,13.10
2017-09-03T09:03:24.758Z,11.90
2017-09-03T09:05:54.242Z,12.80
2017-09-03T09:08:23.686Z,12.50
2017-09-03T09:10:53.145Z,13.10
2017-09-03T09:13:22.639Z,12.30
2017-09-03T09:15:52.115Z,11.90
2017-09-03T09:18:21.574Z,12.97
2017-09-03T09:20:50.859Z,13.27
2017-09-03T09:23:20.652Z,12.50
2017-09-03T09:25:49.970Z,13.10
2017-09-03T09:28:19.239Z,12.00
2017-09-03T09:30:48.543Z,13.10
2017-09-03T09:33:18.062Z,11.80
2017-09-03T09:35:47.538Z,13.40
2017-09-03T09:38:16.987Z,13.50
2017-09-03T09:40:46.457Z,13.97
2017-09-03T09:43:15.929Z,14.50
2017-09-03T09:45:45.401Z,15.00
2017-09-03T09:48:14.746Z,14.17
2017-09-03T09:50:44.262Z,12.67
2017-09-03T09:53:13.538Z,14.60
2017-09-03T09:55:42.815Z,12.90
2017-09-03T09:58:12.107Z,13.47
2017-09-03T10:00:41.571Z,12.73
2017-09-03T10:03:11.066Z,12.57
2017-09-03T10:05:40.519Z,13.00
2017-09-03T10:08:09.978Z,12.13
2017-09-03T10:10:39.456Z,12.63
2017-09-03T10:13:08.914Z,12.63
2017-09-03T10:15:38.342Z,11.57
2017-09-03T10:18:07.811Z,12.07
2017-09-03T10:20:37.271Z,11.80
2017-09-03T10:23:06.734Z,12.23
2017-09-03T10:25:36.235Z,11.43
2017-09-03T10:28:05.696Z,11.83
2017-09-03T10:30:35.159Z,12.57
2017-09-03T10:33:04.607Z,13.70
2017-09-03T10:35:34.083Z,13.40
2017-09-03T10:38:03.536Z,12.80
2017-09-03T10:40:33.031Z,12.27
2017-09-03T10:43:02.492Z,12.07
2017-09-03T10:45:31.935Z,11.53
2017-09-03T10:48:01.411Z,12.13
2017-09-03T10:50:30.895Z,11.80
2017-09-03T10:53:00.341Z,11.60
2017-09-03T10:55:29.818Z,11.17
2017-09-03T10:57:59.298Z,11.60
2017-09-03T11:00:28.764Z,11.13
2017-09-03T11:02:58.225Z,10.10
2017-09-03T11:05:27.687Z,11.00
2017-09-03T11:07:57.175Z,10.13
2017-09-03T11:10:26.630Z,10.40
2017-09-03T11:12:56.113Z,9.70
2017-09-03T11:15:25.567Z,9.30
2017-09-03T11:17:55.042Z,9.60
2017-09-03T11:20:24.508Z,10.47
2017-09-03T11:22:54.000Z,10.23
2017-09-03T11:25:23.479Z,10.00
2017-09-03T11:27:52.943Z,10.00
2017-09-03T11:30:22.469Z,9.20
2017-09-03T11:32:51.998Z,9.40
2017-09-03T11:35:21.477Z,9.30
2017-09-03T11:37:50.938Z,9.60
2017-09-03T11:40:20.475Z,10.53
2017-09-03T11:42:49.948Z,9.00
2017-09-03T11:45:19.450Z,10.50
2017-09-03T11:47:48.903Z,8.83
2017-09-03T11:50:18.359Z,9.67
2017-09-03T11:52:47.835Z,9.67
2017-09-03T11:55:17.324Z,9.53
2017-09-03T11:57:46.815Z,10.20
2017-09-03T12:00:16.271Z,9.30
2017-09-03T12:02:45.723Z,8.50
2017-09-03T12:05:15.183Z,7.60
2017-09-03T12:07:44.687Z,8.00
2017-09-03T12:10:14.156Z,7.70
2017-09-03T12:12:43.611Z,8.60
2017-09-03T12:15:13.087Z,8.50
2017-09-03T12:17:42.561Z,9.70
2017-09-03T12:20:12.032Z,9.23
2017-09-03T12:22:41.503Z,9.07
2017-09-03T12:25:10.967Z,9.90
2017-09-03T12:27:40.440Z,8.10
2017-09-03T12:30:09.931Z,9.33
2017-09-03T12:32:39.420Z,8.57
2017-09-03T12:35:08.866Z,8.53
2017-09-03T12:37:38.450Z,7.60
2017-09-03T12:40:07.903Z,7.40
2017-09-03T12:42:37.367Z,6.70
2017-09-03T12:45:06.823Z,6.83
2017-09-03T12:47:36.274Z,7.43
2017-09-03T12:50:05.752Z,5.83
2017-09-03T12:52:35.190Z,6.60
2017-09-03T12:55:04.651Z,6.60
2017-09-03T12:57:34.141Z,6.00
2017-09-03T13:00:03.592Z,5.40
2017-09-03T13:02:33.069Z,5.90
2017-09-03T13:05:02.539Z,6.00
2017-09-03T13:07:32.002Z,6.50
2017-09-03T13:10:01.494Z,6.50
2017-09-03T13:12:30.969Z,6.20
2017-09-03T13:15:00.419Z,6.83
2017-09-03T13:17:29.862Z,6.80
2017-09-03T13:19:59.223Z,6.30
2017-09-03T13:22:28.719Z,5.50
2017-09-03T13:24:58.191Z,6.60
2017-09-03T13:27:27.692Z,4.87
2017-09-03T13:29:57.153Z,3.47
2017-09-03T13:32:26.651Z,2.97
2017-09-03T13:34:56.115Z,2.90
2017-09-03T13:37:25.571Z,3.03
2017-09-03T13:39:55.103Z,3.37
2017-09-03T13:42:24.572Z,4.10
2017-09-03T13:44:54.016Z,3.77
2017-09-03T13:47:23.477Z,3.50
2017-09-03T13:49:52.954Z,3.70
2017-09-03T13:52:22.436Z,3.70
2017-09-03T13:54:51.907Z,4.47
2017-09-03T13:57:21.357Z,5.10
2017-09-03T13:59:50.854Z,4.40
2017-09-03T14:02:20.315Z,4.10
2017-09-03T14:04:49.787Z,5.33
2017-09-03T14:07:19.255Z,4.80
2017-09-03T14:09:48.710Z,4.40
2017-09-03T14:12:18.194Z,4.27
2017-09-03T14:14:47.658Z,4.10
2017-09-03T14:17:17.107Z,3.97
2017-09-03T14:19:46.588Z,4.00
2017-09-03T14:22:16.038Z,4.20
2017-09-03T14:24:45.669Z,3.70
2017-09-03T14:27:15.169Z,3.10
2017-09-03T14:29:44.647Z,4.20
2017-09-03T14:32:14.099Z,4.10
2017-09-03T14:34:43.568Z,4.30
2017-09-03T14:37:13.302Z,4.00
2017-09-03T14:39:43.001Z,4.10
2017-09-03T14:42:12.466Z,3.90
2017-09-03T14:44:41.962Z,4.33
2017-09-03T14:47:11.426Z,4.43
2017-09-03T14:49:40.877Z,4.47
2017-09-03T14:52:10.368Z,4.77
2017-09-03T14:54:39.819Z,4.40
2017-09-03T14:57:09.307Z,3.33
2017-09-03T14:59:38.771Z,4.17
2017-09-03T15:02:08.255Z,4.10
2017-09-03T15:04:37.720Z,3.77
2017-09-03T15:07:07.182Z,3.20
2017-09-03T15:09:37.290Z,3.30
2017-09-03T15:12:07.279Z,3.57
2017-09-03T15:14:37.072Z,3.60
2017-09-03T15:17:07.551Z,3.70
2017-09-03T15:19:37.036Z,3.80
2017-09-03T15:22:06.319Z,3.43
2017-09-03T15:24:35.276Z,3.37
2017-09-03T15:27:04.730Z,3.20
2017-09-03T15:29:34.204Z,3.30
2017-09-03T15:32:03.671Z,3.77
2017-09-03T15:34:33.151Z,3.27
2017-09-03T15:37:02.600Z,3.00
2017-09-03T15:39:32.047Z,3.17
2017-09-03T15:42:01.607Z,3.50
2017-09-03T15:44:31.223Z,3.23
2017-09-03T15:47:00.711Z,3.20
2017-09-03T15:49:30.172Z,3.30
2017-09-03T15:51:59.643Z,2.90
2017-09-03T15:54:28.923Z,3.33
2017-09-03T15:56:58.367Z,3.30
2017-09-03T15:59:27.850Z,2.93
2017-09-03T16:01:57.354Z,3.20
2017-09-03T16:04:26.815Z,3.27
2017-09-03T16:06:56.293Z,2.50
2017-09-03T16:09:25.754Z,2.80
2017-09-03T16:11:55.224Z,3.03
2017-09-03T16:14:24.688Z,2.97
2017-09-03T16:16:54.134Z,3.00
2017-09-03T16:19:23.584Z,3.13
2017-09-03T16:21:53.108Z,2.90
2017-09-03T16:24:22.570Z,3.33
2017-09-03T16:26:52.022Z,2.80
2017-09-03T16:29:21.496Z,2.67
2017-09-03T16:31:51.275Z,2.70
2017-09-03T16:34:20.715Z,3.03
2017-09-03T16:36:50.219Z,2.70
2017-09-03T16:39:19.682Z,3.13
2017-09-03T16:41:49.149Z,3.20
2017-09-03T16:44:18.622Z,3.87
2017-09-03T16:46:48.080Z,3.57
2017-09-03T16:49:17.572Z,2.83
2017-09-03T16:51:46.832Z,3.40
2017-09-03T16:54:16.174Z,3.40
2017-09-03T16:56:45.445Z,2.87
2017-09-03T16:59:14.738Z,3.60
2017-09-03T17:01:43.998Z,3.77
2017-09-03T17:04:13.255Z,2.70
2017-09-03T17:06:42.539Z,3.20
2017-09-03T17:09:11.806Z,3.13
2017-09-03T17:11:41.136Z,3.80
2017-09-03T17:14:10.413Z,3.50
2017-09-03T17:16:39.695Z,3.97
2017-09-03T17:19:09.078Z,4.77
2017-09-03T17:21:38.371Z,4.90
2017-09-03T17:24:07.682Z,4.73
2017-09-03T17:26:35.951Z,4.80
2017-09-03T17:29:04.242Z,4.00
2017-09-03T17:31:39.211Z,3.93
2017-09-03T17:34:07.680Z,4.43
2017-09-03T17:36:37.796Z,4.60
2017-09-03T17:39:06.092Z,4.97
2017-09-03T17:41:34.391Z,4.50
2017-09-03T17:44:06.345Z,5.33
2017-09-03T17:46:35.432Z,5.40
2017-09-03T17:49:03.834Z,5.20
2017-09-03T17:51:32.106Z,5.20
2017-09-03T17:54:00.401Z,5.37
2017-09-03T17:56:28.684Z,5.03
2017-09-03T17:58:56.999Z,5.20
2017-09-03T18:01:25.278Z,5.77
2017-09-03T18:03:53.555Z,5.80
2017-09-03T18:06:21.844Z,5.60
2017-09-03T18:08:50.129Z,5.40
2017-09-03T18:11:18.415Z,5.57
2017-09-03T18:13:46.694Z,5.33
2017-09-03T18:16:15.978Z,5.80
2017-09-03T18:18:45.244Z,6.23
2017-09-03T18:21:14.500Z,6.30
2017-09-03T18:23:43.778Z,5.80
2017-09-03T18:26:13.069Z,6.10
2017-09-03T18:28:42.991Z,6.40
2017-09-03T18:31:14.873Z,6.00
2017-09-03T18:33:44.180Z,6.53
2017-09-03T18:36:16.334Z,6.03
2017-09-03T18:38:46.559Z,5.80
2017-09-03T18:41:19.383Z,6.47
2017-09-03T18:43:51.399Z,6.30
2017-09-03T18:46:20.662Z,7.00
2017-09-03T18:48:49.937Z,6.60
2017-09-03T18:51:19.822Z,6.50
2017-09-03T18:53:53.643Z,6.27
2017-09-03T18:56:22.944Z,6.67
2017-09-03T19:01:58.003Z,7.30
2017-09-03T19:04:27.333Z,6.20
2017-09-03T19:06:56.635Z,7.20
2017-09-03T19:09:25.899Z,6.33
2017-09-03T19:11:55.200Z,7.23
2017-09-03T19:14:24.726Z,7.13
2017-09-03T19:16:54.263Z,7.27
2017-09-03T19:19:23.557Z,7.10
2017-09-03T19:21:52.899Z,6.50
2017-09-03T19:24:22.180Z,6.90
2017-09-03T19:26:51.445Z,6.43
2017-09-03T19:29:20.732Z,6.97
2017-09-03T19:31:50.003Z,6.80
2017-09-03T19:34:19.293Z,8.07
2017-09-03T19:36:48.586Z,7.63
2017-09-03T19:39:17.879Z,8.70
2017-09-03T19:41:47.399Z,8.20
2017-09-03T19:44:16.906Z,9.07
2017-09-03T19:46:46.354Z,8.10
2017-09-03T19:49:15.842Z,8.50
2017-09-03T19:51:45.310Z,9.30
2017-09-03T19:54:14.779Z,7.80
2017-09-03T19:56:44.226Z,7.60
2017-09-03T19:59:13.755Z,7.77
2017-09-03T20:01:43.211Z,8.03
2017-09-03T20:04:12.754Z,8.07
2017-09-03T20:06:42.271Z,8.20
2017-09-03T20:09:11.769Z,8.57
2017-09-03T20:11:41.266Z,7.73
2017-09-03T20:14:10.741Z,7.70
2017-09-03T20:16:40.197Z,8.70
2017-09-03T20:19:09.657Z,9.70
2017-09-03T20:21:39.182Z,8.87
2017-09-03T20:24:08.648Z,7.90
2017-09-03T20:26:38.117Z,9.03
2017-09-03T20:29:07.590Z,8.40
2017-09-03T20:31:37.122Z,8.20
2017-09-03T20:34:06.600Z,8.23
2017-09-03T20:36:36.072Z,9.40
2017-09-03T20:39:05.609Z,9.20
2017-09-03T20:41:35.071Z,9.60
2017-09-03T20:44:04.540Z,9.40
2017-09-03T20:46:34.067Z,9.53
2017-09-03T20:49:03.706Z,9.90
2017-09-03T20:51:33.159Z,10.40
2017-09-03T20:54:02.611Z,9.23
2017-09-03T20:56:32.070Z,9.80
2017-09-03T20:59:01.523Z,9.30
2017-09-03T21:01:30.990Z,10.00
2017-09-03T21:04:00.333Z,9.00
2017-09-03T21:06:29.627Z,9.13
2017-09-03T21:08:58.926Z,9.77
2017-09-03T21:11:28.380Z,9.10
2017-09-03T21:13:57.850Z,9.90
2017-09-03T21:16:27.318Z,10.37
2017-09-03T21:18:56.773Z,9.97
2017-09-03T21:21:26.261Z,11.57
2017-09-03T21:23:55.715Z,10.50
2017-09-03T21:26:25.195Z,10.43
2017-09-03T21:28:54.651Z,11.47
2017-09-03T21:31:24.183Z,11.90
2017-09-03T21:33:53.647Z,11.20
2017-09-03T21:36:23.159Z,11.10
2017-09-03T21:38:52.635Z,11.30
2017-09-03T21:41:22.115Z,11.63
2017-09-03T21:43:51.602Z,11.80
2017-09-03T21:46:21.118Z,12.10
2017-09-03T21:48:50.591Z,12.63
2017-09-03T21:51:20.051Z,11.53
2017-09-03T21:53:49.527Z,11.53
2017-09-03T21:56:19.019Z,11.40
2017-09-03T21:58:48.479Z,11.87
2017-09-03T22:01:17.971Z,12.00
2017-09-03T22:03:47.449Z,12.10
2017-09-03T22:06:16.936Z,11.53
2017-09-03T22:08:46.499Z,11.23
2017-09-03T22:11:16.014Z,11.53
2017-09-03T22:13:45.660Z,10.47
2017-09-03T22:16:15.147Z,10.37
2017-09-03T22:18:44.719Z,11.30
2017-09-03T22:21:14.178Z,11.67
2017-09-03T22:23:43.647Z,11.03
2017-09-03T22:26:13.114Z,11.80
2017-09-03T22:28:43.435Z,11.10
2017-09-03T22:31:12.892Z,10.50
2017-09-03T22:33:42.369Z,12.67
2017-09-03T22:36:11.830Z,11.90
2017-09-03T22:38:41.303Z,12.93
2017-09-03T22:41:10.767Z,11.30
2017-09-03T22:43:40.219Z,11.77
2017-09-03T22:46:09.717Z,11.80
2017-09-03T22:48:39.456Z,11.80
2017-09-03T22:51:08.918Z,12.00
2017-09-03T22:53:38.427Z,11.07
2017-09-03T22:56:07.893Z,11.33
2017-09-03T22:58:37.373Z,11.30
2017-09-03T23:01:06.850Z,12.93
2017-09-03T23:03:36.353Z,13.47
2017-09-03T23:06:06.105Z,13.87
2017-09-03T23:08:35.607Z,12.53
2017-09-03T23:11:05.212Z,11.80
2017-09-03T23:13:34.687Z,11.87
2017-09-03T23:16:04.139Z,13.13
2017-09-03T23:18:33.621Z,12.60
2017-09-03T23:21:03.072Z,12.30
2017-09-03T23:23:32.539Z,13.47
2017-09-03T23:26:02.007Z,13.03
2017-09-03T23:28:31.459Z,13.20
2017-09-03T23:31:00.935Z,12.67
2017-09-03T23:33:30.400Z,12.43
2017-09-03T23:35:59.855Z,12.40
2017-09-03T23:38:29.330Z,12.23
2017-09-03T23:40:58.787Z,13.23
2017-09-03T23:43:28.407Z,13.50
2017-09-03T23:45:57.889Z,13.70
2017-09-03T23:48:27.348Z,14.40
2017-09-03T23:50:56.833Z,13.20
2017-09-03T23:53:26.290Z,12.93
2017-09-03T23:55:55.739Z,13.10
2017-09-03T23:58:25.216Z,11.90
